createdAt,value
2022-10-01T00:02:08.146Z,3.33
2022-10-01T00:04:37.657Z,2.87
2022-10-01T00:07:09.548Z,3.08
2022-10-01T00:09:37.585Z,2.95
2022-10-01T00:12:05.354Z,3.08
2022-10-01T00:14:33.024Z,3.05
2022-10-01T00:17:01.024Z,3.00
2022-10-01T00:19:28.727Z,3.12
2022-10-01T00:21:56.282Z,3.17
2022-10-01T00:24:24.259Z,2.87
2022-10-01T00:26:51.812Z,2.85
2022-10-01T00:29:19.516Z,2.72
2022-10-01T00:31:47.764Z,3.28
2022-10-01T00:34:15.873Z,3.28
2022-10-01T00:36:43.625Z,3.25
2022-10-01T00:39:12.256Z,3.47
2022-10-01T00:41:40.513Z,3.40
2022-10-01T00:44:29.472Z,3.40
2022-10-01T00:47:19.665Z,3.42
2022-10-01T00:49:49.357Z,3.40
2022-10-01T00:52:22.678Z,3.60
2022-10-01T00:54:55.741Z,3.30
2022-10-01T00:57:26.551Z,2.97
2022-10-01T00:59:57.856Z,3.05
2022-10-01T01:02:26.002Z,3.08
2022-10-01T01:04:53.640Z,3.62
2022-10-01T01:07:22.222Z,3.50
2022-10-01T01:09:53.500Z,3.47
2022-10-01T01:12:21.026Z,3.25
2022-10-01T01:15:04.855Z,3.60
2022-10-01T01:17:50.852Z,3.50
2022-10-01T01:20:37.856Z,3.50
2022-10-01T01:23:14.857Z,3.22
2022-10-01T01:26:10.431Z,3.03
2022-10-01T01:28:44.480Z,3.28
2022-10-01T01:31:16.253Z,3.20
2022-10-01T01:33:47.453Z,3.40
2022-10-01T01:36:19.202Z,3.42
2022-10-01T01:38:54.834Z,3.40
2022-10-01T01:41:26.015Z,3.40
2022-10-01T01:43:56.751Z,3.50
2022-10-01T01:46:31.686Z,3.28
2022-10-01T01:49:02.266Z,3.35
2022-10-01T01:51:47.807Z,3.50
2022-10-01T01:54:15.862Z,3.40
2022-10-01T01:56:43.563Z,3.10
2022-10-01T01:59:11.819Z,3.55
2022-10-01T02:01:44.255Z,3.55
2022-10-01T02:04:31.603Z,3.40
2022-10-01T02:07:36.379Z,3.20
2022-10-01T02:10:16.898Z,3.30
2022-10-01T02:13:14.302Z,3.20
2022-10-01T02:15:48.415Z,3.30
2022-10-01T02:18:50.677Z,3.17
2022-10-01T02:21:30.407Z,3.20
2022-10-01T02:24:09.268Z,3.33
2022-10-01T02:26:40.555Z,3.60
2022-10-01T02:31:41.321Z,3.15
2022-10-01T02:34:12.627Z,3.00
2022-10-01T02:36:42.522Z,3.20
2022-10-01T02:39:12.256Z,2.92
2022-10-01T02:41:44.208Z,3.30
2022-10-01T02:44:23.433Z,2.80
2022-10-01T02:47:15.108Z,3.05
2022-10-01T02:49:43.061Z,3.03
2022-10-01T02:52:26.285Z,2.85
2022-10-01T02:55:07.730Z,2.92
2022-10-01T02:57:37.180Z,2.80
2022-10-01T03:00:09.323Z,3.00
2022-10-01T03:02:37.533Z,2.95
2022-10-01T03:05:06.256Z,2.78
2022-10-01T03:07:35.821Z,2.92
2022-10-01T03:10:05.159Z,2.60
2022-10-01T03:12:33.202Z,2.87
2022-10-01T03:15:02.396Z,2.80
2022-10-01T03:17:30.613Z,2.97
2022-10-01T03:19:58.205Z,2.90
2022-10-01T03:22:25.782Z,3.22
2022-10-01T03:24:54.156Z,3.65
2022-10-01T03:27:22.547Z,3.25
2022-10-01T03:29:50.609Z,3.30
2022-10-01T03:32:18.717Z,3.53
2022-10-01T03:34:46.685Z,2.92
2022-10-01T03:37:14.364Z,2.87
2022-10-01T03:39:42.777Z,2.90
2022-10-01T03:42:10.355Z,3.05
2022-10-01T03:44:37.909Z,2.97
2022-10-01T03:47:05.781Z,3.67
2022-10-01T03:49:34.657Z,3.20
2022-10-01T03:52:04.130Z,3.30
2022-10-01T03:54:32.020Z,3.22
2022-10-01T03:56:59.647Z,3.10
2022-10-01T03:59:27.529Z,3.00
2022-10-01T04:01:55.689Z,3.10
2022-10-01T04:04:23.652Z,3.03
2022-10-01T04:06:51.202Z,3.10
2022-10-01T04:09:18.719Z,3.12
2022-10-01T04:11:46.608Z,2.92
2022-10-01T04:14:14.316Z,3.00
2022-10-01T04:16:41.891Z,3.15
2022-10-01T04:19:10.068Z,3.28
2022-10-01T04:21:39.078Z,3.20
2022-10-01T04:24:06.737Z,3.25
2022-10-01T04:26:34.725Z,3.45
2022-10-01T04:29:02.382Z,3.70
2022-10-01T04:31:35.080Z,3.33
2022-10-01T04:34:03.968Z,3.70
2022-10-01T04:36:31.569Z,3.78
2022-10-01T04:39:02.478Z,3.53
2022-10-01T04:41:31.487Z,3.60
2022-10-01T04:44:00.055Z,3.40
2022-10-01T04:46:30.568Z,3.47
2022-10-01T04:48:58.665Z,3.35
2022-10-01T04:51:26.265Z,3.30
2022-10-01T04:53:53.859Z,3.30
2022-10-01T04:56:21.871Z,3.53
2022-10-01T04:58:49.393Z,3.83
2022-10-01T05:01:16.938Z,3.55
2022-10-01T05:03:44.899Z,3.75
2022-10-01T05:06:12.401Z,3.92
2022-10-01T05:08:39.985Z,4.28
2022-10-01T05:11:07.883Z,3.45
2022-10-01T05:13:35.493Z,3.80
2022-10-01T05:16:03.880Z,3.70
2022-10-01T05:18:32.461Z,3.62
2022-10-01T05:21:04.873Z,3.30
2022-10-01T05:23:33.622Z,3.37
2022-10-01T05:26:01.283Z,2.85
2022-10-01T05:28:29.187Z,2.80
2022-10-01T05:31:00.603Z,2.85
2022-10-01T05:35:57.125Z,2.62
2022-10-01T05:38:25.133Z,3.17
2022-10-01T05:40:52.637Z,3.10
2022-10-01T05:43:20.294Z,2.80
2022-10-01T05:45:49.786Z,3.00
2022-10-01T05:48:17.437Z,3.28
2022-10-01T05:50:45.064Z,2.70
2022-10-01T05:53:14.166Z,3.03
2022-10-01T05:55:41.872Z,2.70
2022-10-01T05:58:12.433Z,2.80
2022-10-01T06:03:13.007Z,3.67
2022-10-01T06:05:41.068Z,3.50
2022-10-01T06:08:12.006Z,3.20
2022-10-01T06:10:39.921Z,3.40
2022-10-01T06:13:07.848Z,3.03
2022-10-01T06:15:38.904Z,3.22
2022-10-01T06:20:36.645Z,2.95
2022-10-01T06:23:07.364Z,3.42
2022-10-01T06:25:36.450Z,3.20
2022-10-01T06:28:05.984Z,3.17
2022-10-01T06:30:36.302Z,2.90
2022-10-01T06:33:09.258Z,2.92
2022-10-01T06:35:44.685Z,3.28
2022-10-01T06:38:13.270Z,2.85
2022-10-01T06:40:41.410Z,3.42
2022-10-01T06:43:09.962Z,3.72
2022-10-01T06:45:41.159Z,4.00
2022-10-01T06:48:13.913Z,3.10
2022-10-01T06:50:44.079Z,2.90
2022-10-01T06:53:13.079Z,3.92
2022-10-01T06:55:41.324Z,3.33
2022-10-01T06:58:21.093Z,3.00
2022-10-01T07:00:49.963Z,3.10
2022-10-01T07:03:20.170Z,3.87
2022-10-01T07:05:49.216Z,4.25
2022-10-01T07:08:17.749Z,3.72
2022-10-01T07:10:45.883Z,3.40
2022-10-01T07:13:20.271Z,3.12
2022-10-01T07:15:48.368Z,2.80
2022-10-01T07:18:16.976Z,3.45
2022-10-01T07:20:44.575Z,3.62
2022-10-01T07:23:14.831Z,3.70
2022-10-01T07:25:43.278Z,3.28
2022-10-01T07:28:16.827Z,3.47
2022-10-01T07:31:00.500Z,3.40
2022-10-01T07:33:28.884Z,3.42
2022-10-01T07:36:00.310Z,3.60
2022-10-01T07:38:27.927Z,3.50
2022-10-01T07:40:55.706Z,3.60
2022-10-01T07:43:23.542Z,3.70
2022-10-01T07:45:52.801Z,3.83
2022-10-01T07:48:20.534Z,4.72
2022-10-01T07:50:48.392Z,3.95
2022-10-01T07:53:16.564Z,3.60
2022-10-01T07:55:44.893Z,3.35
2022-10-01T07:58:13.084Z,3.87
2022-10-01T08:00:40.636Z,3.83
2022-10-01T08:03:09.089Z,3.72
2022-10-01T08:05:36.890Z,3.28
2022-10-01T08:08:07.152Z,3.42
2022-10-01T08:10:37.383Z,3.25
2022-10-01T08:13:14.858Z,3.45
2022-10-01T08:15:50.675Z,3.35
2022-10-01T08:18:18.577Z,3.62
2022-10-01T08:20:47.390Z,3.50
2022-10-01T08:23:16.955Z,3.08
2022-10-01T08:25:45.262Z,3.70
2022-10-01T08:28:13.396Z,3.90
2022-10-01T08:30:42.857Z,3.22
2022-10-01T08:33:12.237Z,3.30
2022-10-01T08:35:41.504Z,4.57
2022-10-01T08:38:09.987Z,3.58
2022-10-01T08:40:50.056Z,3.45
2022-10-01T08:43:27.697Z,3.00
2022-10-01T08:46:00.579Z,3.30
2022-10-01T08:48:43.461Z,3.75
2022-10-01T08:51:23.048Z,3.35
2022-10-01T08:53:57.622Z,3.58
2022-10-01T08:56:30.911Z,3.67
2022-10-01T08:59:02.941Z,3.80
2022-10-01T09:01:31.246Z,3.85
2022-10-01T09:03:59.745Z,3.78
2022-10-01T09:06:28.415Z,3.55
2022-10-01T09:09:29.482Z,3.50
2022-10-01T09:12:00.228Z,3.62
2022-10-01T09:14:33.380Z,3.55
2022-10-01T09:17:48.689Z,3.65
2022-10-01T09:20:45.500Z,3.58
2022-10-01T09:23:22.344Z,3.47
2022-10-01T09:25:51.100Z,3.42
2022-10-01T09:28:24.415Z,3.28
2022-10-01T09:30:59.125Z,3.50
2022-10-01T09:33:33.922Z,3.50
2022-10-01T09:36:07.500Z,3.90
2022-10-01T09:38:48.614Z,3.67
2022-10-01T09:41:17.802Z,3.92
2022-10-01T09:43:45.943Z,3.42
2022-10-01T09:46:17.531Z,3.72
2022-10-01T09:48:54.371Z,3.45
2022-10-01T09:51:29.178Z,3.25
2022-10-01T09:54:05.195Z,3.58
2022-10-01T09:56:42.484Z,3.50
2022-10-01T09:59:20.799Z,3.83
2022-10-01T10:01:51.929Z,3.92
2022-10-01T10:04:23.276Z,3.60
2022-10-01T10:07:02.622Z,4.00
2022-10-01T10:09:33.432Z,3.75
2022-10-01T10:12:02.668Z,3.50
2022-10-01T10:14:41.226Z,3.20
2022-10-01T10:17:21.234Z,3.12
2022-10-01T10:19:51.803Z,3.42
2022-10-01T10:22:27.225Z,3.20
2022-10-01T10:24:58.996Z,3.30
2022-10-01T10:27:29.465Z,3.10
2022-10-01T10:32:33.593Z,3.40
2022-10-01T10:35:10.232Z,3.58
2022-10-01T10:37:44.494Z,3.33
2022-10-01T10:40:29.236Z,3.17
2022-10-01T10:42:59.217Z,3.15
2022-10-01T10:45:38.732Z,3.50
2022-10-01T10:48:12.026Z,3.05
2022-10-01T10:50:43.595Z,3.42
2022-10-01T10:53:22.808Z,3.40
2022-10-01T10:56:01.456Z,3.10
2022-10-01T10:58:31.833Z,3.15
2022-10-01T11:01:06.909Z,3.20
2022-10-01T11:03:38.120Z,3.00
2022-10-01T11:06:14.913Z,2.90
2022-10-01T11:08:43.465Z,2.80
2022-10-01T11:11:25.237Z,2.70
2022-10-01T11:14:08.499Z,2.80
2022-10-01T11:16:36.930Z,2.50
2022-10-01T11:19:23.066Z,2.58
2022-10-01T11:22:13.647Z,2.80
2022-10-01T11:25:02.832Z,2.30
2022-10-01T11:27:47.997Z,2.70
2022-10-01T11:30:22.534Z,2.17
2022-10-01T11:33:11.598Z,2.12
2022-10-01T11:36:04.564Z,2.90
2022-10-01T11:38:54.354Z,2.60
2022-10-01T11:41:39.306Z,2.90
2022-10-01T11:44:15.988Z,2.40
2022-10-01T11:47:07.747Z,2.70
2022-10-01T11:49:35.867Z,2.22
2022-10-01T11:52:14.852Z,2.85
2022-10-01T11:55:28.165Z,3.33
2022-10-01T11:58:47.971Z,2.65
2022-10-01T12:01:27.975Z,3.37
2022-10-01T12:04:06.814Z,3.00
2022-10-01T12:06:56.493Z,3.10
2022-10-01T12:09:36.949Z,3.67
2022-10-01T12:12:08.982Z,2.97
2022-10-01T12:14:51.093Z,3.05
2022-10-01T12:17:33.583Z,2.83
2022-10-01T12:20:04.332Z,2.70
2022-10-01T12:22:38.512Z,2.50
2022-10-01T12:25:12.885Z,2.47
2022-10-01T12:27:53.389Z,2.40
2022-10-01T12:33:04.941Z,1.90
2022-10-01T12:35:47.509Z,1.87
2022-10-01T12:38:39.466Z,1.95
2022-10-01T12:41:33.997Z,2.20
2022-10-01T12:44:34.317Z,2.00
2022-10-01T12:47:36.501Z,2.30
2022-10-01T12:50:22.849Z,2.05
2022-10-01T12:53:09.448Z,2.00
2022-10-01T12:56:03.282Z,1.90
2022-10-01T12:58:56.778Z,2.33
2022-10-01T13:01:32.564Z,2.42
2022-10-01T13:04:20.695Z,2.70
2022-10-01T13:07:04.274Z,2.60
2022-10-01T13:09:51.011Z,2.47
2022-10-01T13:13:08.018Z,2.80
2022-10-01T13:15:39.245Z,2.65
2022-10-01T13:18:09.544Z,2.35
2022-10-01T13:23:34.117Z,2.40
2022-10-01T13:26:13.340Z,2.30
2022-10-01T13:28:58.290Z,2.30
2022-10-01T13:31:39.984Z,2.22
2022-10-01T13:34:46.129Z,2.72
2022-10-01T13:37:17.207Z,2.40
2022-10-01T13:39:49.005Z,2.42
2022-10-01T13:42:27.581Z,2.17
2022-10-01T13:44:58.561Z,2.25
2022-10-01T13:47:27.920Z,2.12
2022-10-01T13:50:00.046Z,2.28
2022-10-01T13:52:29.844Z,2.30
2022-10-01T13:54:59.719Z,2.40
2022-10-01T13:57:38.454Z,2.22
2022-10-01T14:00:11.846Z,1.85
2022-10-01T14:02:43.375Z,2.00
2022-10-01T14:05:23.182Z,1.70
2022-10-01T14:07:57.989Z,2.08
2022-10-01T14:10:34.948Z,1.80
2022-10-01T14:13:23.186Z,1.65
2022-10-01T14:16:00.201Z,2.05
2022-10-01T14:18:39.187Z,2.28
2022-10-01T14:21:17.861Z,2.25
2022-10-01T14:24:05.364Z,2.50
2022-10-01T14:26:54.201Z,2.70
2022-10-01T14:29:22.576Z,2.83
2022-10-01T14:31:55.847Z,3.10
2022-10-01T14:34:42.507Z,2.90
2022-10-01T14:37:17.106Z,3.20
2022-10-01T14:39:45.762Z,3.58
2022-10-01T14:42:18.081Z,3.17
2022-10-01T14:44:47.501Z,3.12
2022-10-01T14:47:25.657Z,3.20
2022-10-01T14:49:54.682Z,3.12
2022-10-01T14:52:31.619Z,3.12
2022-10-01T14:55:11.890Z,2.90
2022-10-01T14:57:42.749Z,2.50
2022-10-01T15:00:26.524Z,2.83
2022-10-01T15:03:15.575Z,2.80
2022-10-01T15:05:45.315Z,3.15
2022-10-01T15:08:24.537Z,2.25
2022-10-01T15:11:06.069Z,2.83
2022-10-01T15:13:38.023Z,2.25
2022-10-01T15:16:12.677Z,3.10
2022-10-01T15:18:57.601Z,2.20
2022-10-01T15:21:36.774Z,2.70
2022-10-01T15:24:12.330Z,2.55
2022-10-01T15:26:40.385Z,2.05
2022-10-01T15:29:16.714Z,2.28
2022-10-01T15:31:47.136Z,2.40
2022-10-01T15:34:17.643Z,2.10
2022-10-01T15:36:47.533Z,2.30
2022-10-01T15:39:32.646Z,1.95
2022-10-01T15:42:08.904Z,2.35
2022-10-01T15:44:38.386Z,2.58
2022-10-01T15:47:26.467Z,2.37
2022-10-01T15:50:12.603Z,2.42
2022-10-01T15:53:06.234Z,2.53
2022-10-01T15:55:35.029Z,2.42
2022-10-01T15:58:05.168Z,2.87
2022-10-01T16:00:44.211Z,2.62
2022-10-01T16:03:19.819Z,3.00
2022-10-01T16:05:48.908Z,2.75
2022-10-01T16:08:21.931Z,2.55
2022-10-01T16:11:15.730Z,2.75
2022-10-01T16:13:46.826Z,2.67
2022-10-01T16:16:14.451Z,3.40
2022-10-01T16:18:42.652Z,3.10
2022-10-01T16:21:11.422Z,3.10
2022-10-01T16:23:43.801Z,3.97
2022-10-01T16:26:29.931Z,5.15
2022-10-01T16:29:06.431Z,5.93
2022-10-01T16:31:36.946Z,7.90
2022-10-01T16:34:14.600Z,5.82
2022-10-01T16:36:44.061Z,4.07
2022-10-01T16:39:16.045Z,3.55
2022-10-01T16:41:56.552Z,3.22
2022-10-01T16:44:29.272Z,3.33
2022-10-01T16:46:57.158Z,3.00
2022-10-01T16:49:25.545Z,3.05
2022-10-01T16:51:53.979Z,3.42
2022-10-01T16:54:24.962Z,3.12
2022-10-01T16:56:55.288Z,3.72
2022-10-01T16:59:24.770Z,4.70
2022-10-01T17:01:54.996Z,7.05
2022-10-01T17:04:23.551Z,7.70
2022-10-01T17:06:51.143Z,9.43
2022-10-01T17:09:18.863Z,8.00
2022-10-01T17:11:46.778Z,8.90
2022-10-01T17:14:22.282Z,6.68
2022-10-01T17:16:53.235Z,5.95
2022-10-01T17:19:24.998Z,5.57
2022-10-01T17:21:53.268Z,4.80
2022-10-01T17:24:21.153Z,4.97
2022-10-01T17:26:48.829Z,4.40
2022-10-01T17:29:16.787Z,4.20
2022-10-01T17:31:53.282Z,3.87
2022-10-01T17:34:21.925Z,3.53
2022-10-01T17:36:49.605Z,3.95
2022-10-01T17:39:17.237Z,3.83
2022-10-01T17:41:45.223Z,3.72
2022-10-01T17:44:12.874Z,3.28
2022-10-01T17:46:40.516Z,4.05
2022-10-01T17:49:08.842Z,3.33
2022-10-01T17:51:36.824Z,3.60
2022-10-01T17:54:04.883Z,3.50
2022-10-01T17:56:33.276Z,4.15
2022-10-01T17:59:01.112Z,4.05
2022-10-01T18:01:28.792Z,3.62
2022-10-01T18:03:57.597Z,3.60
2022-10-01T18:06:25.754Z,3.67
2022-10-01T18:08:56.214Z,3.42
2022-10-01T18:11:27.021Z,3.30
2022-10-01T18:13:54.631Z,3.27
2022-10-01T18:16:22.366Z,3.40
2022-10-01T18:21:47.258Z,3.03
2022-10-01T18:24:16.285Z,3.35
2022-10-01T18:26:45.681Z,3.72
2022-10-01T18:29:21.927Z,3.85
2022-10-01T18:31:59.027Z,3.97
2022-10-01T18:34:32.923Z,3.75
2022-10-01T18:37:26.900Z,3.75
2022-10-01T18:40:07.941Z,3.65
2022-10-01T18:43:00.753Z,4.03
2022-10-01T18:45:59.871Z,3.95
2022-10-01T18:48:54.048Z,3.62
2022-10-01T18:51:24.602Z,3.87
2022-10-01T18:54:04.904Z,4.28
2022-10-01T18:56:37.555Z,4.40
2022-10-01T18:59:40.614Z,3.90
2022-10-01T19:02:35.039Z,4.45
2022-10-01T19:05:05.735Z,4.40
2022-10-01T19:07:33.293Z,4.57
2022-10-01T19:10:41.478Z,4.12
2022-10-01T19:13:26.056Z,3.92
2022-10-01T19:16:33.104Z,4.22
2022-10-01T19:19:26.068Z,4.55
2022-10-01T19:22:34.136Z,4.18
2022-10-01T19:25:25.669Z,4.47
2022-10-01T19:28:26.009Z,4.37
2022-10-01T19:31:12.681Z,4.65
2022-10-01T19:34:05.713Z,4.45
2022-10-01T19:36:40.813Z,4.50
2022-10-01T19:39:16.034Z,4.28
2022-10-01T19:42:05.728Z,3.92
2022-10-01T19:44:52.006Z,4.00
2022-10-01T19:47:46.040Z,4.15
2022-10-01T19:50:31.681Z,3.85
2022-10-01T19:53:02.523Z,3.97
2022-10-01T19:55:38.851Z,3.72
2022-10-01T19:58:18.006Z,3.70
2022-10-01T20:00:52.813Z,3.60
2022-10-01T20:03:34.809Z,3.28
2022-10-01T20:06:07.166Z,3.30
2022-10-01T20:08:55.555Z,3.55
2022-10-01T20:11:30.299Z,4.10
2022-10-01T20:14:36.083Z,3.67
2022-10-01T20:17:21.452Z,4.10
2022-10-01T20:20:17.282Z,4.07
2022-10-01T20:23:13.992Z,4.43
2022-10-01T20:25:47.761Z,4.55
2022-10-01T20:28:36.416Z,4.68
2022-10-01T20:31:16.460Z,4.62
2022-10-01T20:34:15.843Z,4.62
2022-10-01T20:37:08.142Z,4.65
2022-10-01T20:39:47.036Z,4.55
2022-10-01T20:42:24.205Z,4.80
2022-10-01T20:44:56.327Z,4.53
2022-10-01T20:47:46.741Z,5.15
2022-10-01T20:50:22.113Z,5.00
2022-10-01T20:53:04.124Z,4.90
2022-10-01T20:56:16.231Z,4.90
2022-10-01T20:58:59.136Z,5.25
2022-10-01T21:01:30.326Z,4.85
2022-10-01T21:04:05.206Z,4.87
2022-10-01T21:06:39.401Z,4.43
2022-10-01T21:09:18.628Z,5.00
2022-10-01T21:11:56.644Z,4.65
2022-10-01T21:14:24.931Z,4.50
2022-10-01T21:17:12.217Z,4.65
2022-10-01T21:19:54.907Z,4.87
2022-10-01T21:23:03.894Z,4.43
2022-10-01T21:25:37.830Z,4.28
2022-10-01T21:28:11.404Z,4.40
2022-10-01T21:30:53.076Z,4.37
2022-10-01T21:33:38.556Z,4.10
2022-10-01T21:36:27.919Z,3.85
2022-10-01T21:39:04.422Z,3.55
2022-10-01T21:42:04.376Z,3.87
2022-10-01T21:44:37.636Z,3.80
2022-10-01T21:47:40.972Z,3.87
2022-10-01T21:50:11.158Z,3.60
2022-10-01T21:53:08.138Z,3.62
2022-10-01T21:55:47.308Z,3.33
2022-10-01T21:58:55.480Z,2.90
2022-10-01T22:01:35.290Z,3.12
2022-10-01T22:04:32.154Z,2.60
2022-10-01T22:07:13.420Z,2.50
2022-10-01T22:09:51.862Z,2.37
2022-10-01T22:12:20.693Z,2.40
2022-10-01T22:14:51.652Z,2.58
2022-10-01T22:17:25.044Z,2.50
2022-10-01T22:19:56.943Z,2.10
2022-10-01T22:22:35.609Z,2.20
2022-10-01T22:25:05.116Z,2.22
2022-10-01T22:28:03.072Z,2.00
2022-10-01T22:30:36.958Z,2.08
2022-10-01T22:33:49.063Z,2.30
2022-10-01T22:36:31.705Z,2.40
2022-10-01T22:39:16.149Z,2.20
2022-10-01T22:41:56.385Z,2.17
2022-10-01T22:44:24.261Z,2.35
2022-10-01T22:47:00.726Z,2.53
2022-10-01T22:49:46.961Z,2.70
2022-10-01T22:52:17.426Z,2.97
2022-10-01T22:54:53.763Z,3.33
2022-10-01T22:57:43.693Z,2.80
2022-10-01T23:00:13.822Z,2.60
2022-10-01T23:02:49.993Z,2.95
2022-10-01T23:05:29.352Z,2.92
2022-10-01T23:08:07.381Z,3.15
2022-10-01T23:11:12.255Z,3.12
2022-10-01T23:13:58.689Z,2.90
2022-10-01T23:16:50.788Z,2.95
2022-10-01T23:19:38.959Z,3.25
2022-10-01T23:22:15.700Z,2.83
2022-10-01T23:24:59.394Z,3.12
2022-10-01T23:27:57.627Z,2.90
2022-10-01T23:30:32.100Z,2.95
2022-10-01T23:33:33.502Z,3.37
2022-10-01T23:36:28.893Z,3.00
2022-10-01T23:39:27.571Z,2.95
2022-10-01T23:42:02.697Z,3.60
2022-10-01T23:44:39.844Z,3.50
2022-10-01T23:47:16.943Z,3.20
2022-10-01T23:49:58.018Z,3.20
2022-10-01T23:52:47.556Z,3.28
2022-10-01T23:55:40.133Z,3.30
2022-10-01T23:58:13.927Z,3.80
